sensor_id;sensor_type;location;lat;lon;timestamp;P1;durP1;ratioP1;P2;durP2;ratioP2
38037;SDS011;23843;51.320;12.340;2023-02-28T05:32:33;3.83;;;2.60;;
38037;SDS011;23843;51.320;12.340;2023-02-28T05:34:59;5.93;;;3.50;;
38037;SDS011;23843;51.320;12.340;2023-02-28T05:37:24;4.97;;;2.90;;
38037;SDS011;23843;51.320;12.340;2023-02-28T05:39:51;3.70;;;2.20;;
38037;SDS011;23843;51.320;12.340;2023-02-28T05:42:17;5.00;;;2.70;;
38037;SDS011;23843;51.320;12.340;2023-02-28T05:44:43;4.00;;;2.63;;
38037;SDS011;23843;51.320;12.340;2023-02-28T05:47:16;4.77;;;2.60;;
38037;SDS011;23843;51.320;12.340;2023-02-28T05:49:44;4.37;;;2.67;;
38037;SDS011;23843;51.320;12.340;2023-02-28T05:52:10;3.93;;;2.30;;
38037;SDS011;23843;51.320;12.340;2023-02-28T05:54:36;3.57;;;2.27;;
38037;SDS011;23843;51.320;12.340;2023-02-28T05:57:02;3.50;;;2.20;;
38037;SDS011;23843;51.320;12.340;2023-02-28T05:59:28;4.17;;;2.47;;
38037;SDS011;23843;51.320;12.340;2023-02-28T06:01:54;3.33;;;2.30;;
38037;SDS011;23843;51.320;12.340;2023-02-28T06:04:20;4.63;;;3.13;;
38037;SDS011;23843;51.320;12.340;2023-02-28T06:06:47;7.17;;;3.23;;
38037;SDS011;23843;51.320;12.340;2023-02-28T06:09:13;5.83;;;2.93;;
38037;SDS011;23843;51.320;12.340;2023-02-28T06:11:40;4.40;;;2.00;;
38037;SDS011;23843;51.320;12.340;2023-02-28T06:14:06;3.93;;;2.33;;
38037;SDS011;23843;51.320;12.340;2023-02-28T06:16:33;4.20;;;2.70;;
38037;SDS011;23843;51.320;12.340;2023-02-28T06:19:00;3.67;;;2.50;;
38037;SDS011;23843;51.320;12.340;2023-02-28T06:21:28;5.20;;;2.87;;
38037;SDS011;23843;51.320;12.340;2023-02-28T06:23:55;6.17;;;3.20;;
38037;SDS011;23843;51.320;12.340;2023-02-28T06:26:22;8.17;;;3.40;;
38037;SDS011;23843;51.320;12.340;2023-02-28T06:28:48;7.00;;;3.43;;
38037;SDS011;23843;51.320;12.340;2023-02-28T06:31:15;8.63;;;4.33;;
38037;SDS011;23843;51.320;12.340;2023-02-28T06:33:43;8.60;;;3.53;;
38037;SDS011;23843;51.320;12.340;2023-02-28T06:36:10;6.63;;;3.40;;
38037;SDS011;23843;51.320;12.340;2023-02-28T06:38:37;5.30;;;3.03;;
38037;SDS011;23843;51.320;12.340;2023-02-28T06:41:05;4.47;;;2.60;;
38037;SDS011;23843;51.320;12.340;2023-02-28T06:43:33;4.17;;;2.70;;
38037;SDS011;23843;51.320;12.340;2023-02-28T06:46:02;6.70;;;3.73;;
38037;SDS011;23843;51.320;12.340;2023-02-28T06:48:30;7.37;;;3.60;;
38037;SDS011;23843;51.320;12.340;2023-02-28T06:51:04;6.23;;;3.47;;
38037;SDS011;23843;51.320;12.340;2023-02-28T06:53:31;8.33;;;4.10;;
38037;SDS011;23843;51.320;12.340;2023-02-28T06:55:57;6.50;;;3.63;;
38037;SDS011;23843;51.320;12.340;2023-02-28T06:58:24;8.87;;;3.83;;
38037;SDS011;23843;51.320;12.340;2023-02-28T07:00:50;5.53;;;3.43;;
38037;SDS011;23843;51.320;12.340;2023-02-28T07:03:16;7.70;;;3.97;;
38037;SDS011;23843;51.320;12.340;2023-02-28T07:05:42;6.90;;;3.57;;
38037;SDS011;23843;51.320;12.340;2023-02-28T07:08:08;7.03;;;3.53;;
38037;SDS011;23843;51.320;12.340;2023-02-28T07:10:34;7.67;;;4.33;;
38037;SDS011;23843;51.320;12.340;2023-02-28T07:13:03;9.30;;;4.47;;
38037;SDS011;23843;51.320;12.340;2023-02-28T07:15:31;9.00;;;4.10;;
38037;SDS011;23843;51.320;12.340;2023-02-28T07:17:57;7.43;;;4.07;;
38037;SDS011;23843;51.320;12.340;2023-02-28T07:20:24;7.93;;;3.70;;
38037;SDS011;23843;51.320;12.340;2023-02-28T07:22:50;7.73;;;4.30;;
38037;SDS011;23843;51.320;12.340;2023-02-28T07:25:18;9.17;;;4.83;;
38037;SDS011;23843;51.320;12.340;2023-02-28T07:27:44;8.63;;;4.50;;
38037;SDS011;23843;51.320;12.340;2023-02-28T07:30:10;10.57;;;4.90;;
38037;SDS011;23843;51.320;12.340;2023-02-28T07:32:38;9.97;;;4.83;;
38037;SDS011;23843;51.320;12.340;2023-02-28T07:35:05;8.67;;;4.70;;
38037;SDS011;23843;51.320;12.340;2023-02-28T07:37:32;8.23;;;4.40;;
38037;SDS011;23843;51.320;12.340;2023-02-28T07:39:58;12.87;;;5.63;;
38037;SDS011;23843;51.320;12.340;2023-02-28T07:42:24;10.47;;;5.10;;
38037;SDS011;23843;51.320;12.340;2023-02-28T07:44:50;9.70;;;4.47;;
38037;SDS011;23843;51.320;12.340;2023-02-28T07:47:16;8.77;;;4.57;;
38037;SDS011;23843;51.320;12.340;2023-02-28T07:49:44;9.57;;;5.20;;
38037;SDS011;23843;51.320;12.340;2023-02-28T07:52:10;7.17;;;4.73;;
38037;SDS011;23843;51.320;12.340;2023-02-28T07:54:37;8.93;;;5.70;;
38037;SDS011;23843;51.320;12.340;2023-02-28T07:57:02;11.17;;;5.97;;
38037;SDS011;23843;51.320;12.340;2023-02-28T07:59:27;8.33;;;5.10;;
38037;SDS011;23843;51.320;12.340;2023-02-28T08:01:54;11.70;;;6.27;;
38037;SDS011;23843;51.320;12.340;2023-02-28T08:04:22;12.07;;;5.40;;
38037;SDS011;23843;51.320;12.340;2023-02-28T08:06:50;7.63;;;4.37;;
38037;SDS011;23843;51.320;12.340;2023-02-28T08:09:15;7.67;;;4.33;;
38037;SDS011;23843;51.320;12.340;2023-02-28T08:11:41;6.60;;;4.10;;
38037;SDS011;23843;51.320;12.340;2023-02-28T08:14:07;7.07;;;4.43;;
38037;SDS011;23843;51.320;12.340;2023-02-28T08:16:32;7.70;;;4.67;;
38037;SDS011;23843;51.320;12.340;2023-02-28T08:18:58;8.33;;;3.93;;
38037;SDS011;23843;51.320;12.340;2023-02-28T08:21:24;8.47;;;4.40;;
38037;SDS011;23843;51.320;12.340;2023-02-28T08:23:51;6.70;;;3.70;;
38037;SDS011;23843;51.320;12.340;2023-02-28T08:26:17;6.83;;;4.00;;
38037;SDS011;23843;51.320;12.340;2023-02-28T08:28:44;4.87;;;3.30;;
38037;SDS011;23843;51.320;12.340;2023-02-28T08:31:11;5.90;;;3.43;;
38037;SDS011;23843;51.320;12.340;2023-02-28T08:33:39;8.47;;;4.30;;
38037;SDS011;23843;51.320;12.340;2023-02-28T08:36:07;8.03;;;4.23;;
38037;SDS011;23843;51.320;12.340;2023-02-28T08:38:34;7.80;;;4.20;;
38037;SDS011;23843;51.320;12.340;2023-02-28T08:41:02;6.27;;;3.77;;
38037;SDS011;23843;51.320;12.340;2023-02-28T08:43:30;5.53;;;2.77;;
38037;SDS011;23843;51.320;12.340;2023-02-28T08:45:56;6.20;;;3.20;;
38037;SDS011;23843;51.320;12.340;2023-02-28T08:48:22;6.97;;;3.43;;
38037;SDS011;23843;51.320;12.340;2023-02-28T08:50:54;5.10;;;3.47;;
38037;SDS011;23843;51.320;12.340;2023-02-28T08:53:20;5.77;;;3.13;;
38037;SDS011;23843;51.320;12.340;2023-02-28T08:55:47;6.33;;;4.10;;
38037;SDS011;23843;51.320;12.340;2023-02-28T08:58:22;6.40;;;3.70;;
38037;SDS011;23843;51.320;12.340;2023-02-28T09:00:48;5.03;;;3.40;;
38037;SDS011;23843;51.320;12.340;2023-02-28T09:03:13;7.03;;;4.07;;
38037;SDS011;23843;51.320;12.340;2023-02-28T09:05:39;5.23;;;3.10;;
38037;SDS011;23843;51.320;12.340;2023-02-28T09:08:04;5.30;;;3.40;;
38037;SDS011;23843;51.320;12.340;2023-02-28T09:10:30;6.77;;;4.20;;
38037;SDS011;23843;51.320;12.340;2023-02-28T09:12:55;4.53;;;3.07;;
38037;SDS011;23843;51.320;12.340;2023-02-28T09:15:22;7.03;;;4.10;;
38037;SDS011;23843;51.320;12.340;2023-02-28T09:17:48;5.73;;;4.00;;
38037;SDS011;23843;51.320;12.340;2023-02-28T09:20:13;8.03;;;3.77;;
38037;SDS011;23843;51.320;12.340;2023-02-28T09:22:40;5.80;;;4.00;;
38037;SDS011;23843;51.320;12.340;2023-02-28T09:25:07;5.50;;;3.20;;
38037;SDS011;23843;51.320;12.340;2023-02-28T09:27:33;5.47;;;3.20;;
38037;SDS011;23843;51.320;12.340;2023-02-28T09:30:00;6.10;;;3.40;;
38037;SDS011;23843;51.320;12.340;2023-02-28T09:32:27;6.23;;;3.90;;
38037;SDS011;23843;51.320;12.340;2023-02-28T09:34:52;6.97;;;4.20;;
38037;SDS011;23843;51.320;12.340;2023-02-28T09:37:18;5.10;;;4.03;;
38037;SDS011;23843;51.320;12.340;2023-02-28T09:39:44;8.03;;;4.47;;
38037;SDS011;23843;51.320;12.340;2023-02-28T09:42:12;9.47;;;4.70;;
38037;SDS011;23843;51.320;12.340;2023-02-28T09:44:46;5.80;;;3.40;;
38037;SDS011;23843;51.320;12.340;2023-02-28T09:47:14;6.80;;;4.17;;
38037;SDS011;23843;51.320;12.340;2023-02-28T09:49:48;5.53;;;3.90;;
38037;SDS011;23843;51.320;12.340;2023-02-28T09:52:16;4.83;;;3.27;;
38037;SDS011;23843;51.320;12.340;2023-02-28T09:54:43;5.37;;;3.10;;
38037;SDS011;23843;51.320;12.340;2023-02-28T09:57:14;5.07;;;3.10;;
38037;SDS011;23843;51.320;12.340;2023-02-28T09:59:51;4.20;;;2.90;;
38037;SDS011;23843;51.320;12.340;2023-02-28T10:02:39;6.37;;;4.03;;
38037;SDS011;23843;51.320;12.340;2023-02-28T10:05:14;8.87;;;4.40;;
38037;SDS011;23843;51.320;12.340;2023-02-28T10:07:46;5.53;;;3.40;;
38037;SDS011;23843;51.320;12.340;2023-02-28T10:10:27;5.60;;;3.60;;
38037;SDS011;23843;51.320;12.340;2023-02-28T10:12:58;5.43;;;3.73;;
38037;SDS011;23843;51.320;12.340;2023-02-28T10:15:29;7.27;;;4.03;;
38037;SDS011;23843;51.320;12.340;2023-02-28T10:17:56;9.73;;;3.90;;
38037;SDS011;23843;51.320;12.340;2023-02-28T10:20:26;4.20;;;2.80;;
38037;SDS011;23843;51.320;12.340;2023-02-28T10:22:56;4.90;;;2.83;;
38037;SDS011;23843;51.320;12.340;2023-02-28T10:25:25;6.83;;;3.97;;
38037;SDS011;23843;51.320;12.340;2023-02-28T10:27:52;6.90;;;3.50;;
38037;SDS011;23843;51.320;12.340;2023-02-28T10:30:19;7.17;;;4.20;;
38037;SDS011;23843;51.320;12.340;2023-02-28T10:32:47;7.33;;;4.50;;
38037;SDS011;23843;51.320;12.340;2023-02-28T10:35:15;7.53;;;3.80;;
38037;SDS011;23843;51.320;12.340;2023-02-28T10:37:45;8.13;;;4.20;;
38037;SDS011;23843;51.320;12.340;2023-02-28T10:40:25;5.80;;;3.90;;
38037;SDS011;23843;51.320;12.340;2023-02-28T10:42:56;6.33;;;3.90;;
38037;SDS011;23843;51.320;12.340;2023-02-28T10:45:25;7.17;;;3.73;;
38037;SDS011;23843;51.320;12.340;2023-02-28T10:47:53;5.90;;;3.13;;
38037;SDS011;23843;51.320;12.340;2023-02-28T10:50:29;7.23;;;4.00;;
38037;SDS011;23843;51.320;12.340;2023-02-28T10:53:07;5.23;;;3.40;;
38037;SDS011;23843;51.320;12.340;2023-02-28T10:55:41;5.03;;;3.10;;
38037;SDS011;23843;51.320;12.340;2023-02-28T10:58:14;6.83;;;4.07;;
38037;SDS011;23843;51.320;12.340;2023-02-28T11:00:46;7.17;;;4.60;;
38037;SDS011;23843;51.320;12.340;2023-02-28T11:03:21;7.73;;;4.43;;
38037;SDS011;23843;51.320;12.340;2023-02-28T11:05:49;8.50;;;4.60;;
38037;SDS011;23843;51.320;12.340;2023-02-28T11:08:17;6.93;;;3.93;;
38037;SDS011;23843;51.320;12.340;2023-02-28T11:10:44;7.03;;;4.00;;
38037;SDS011;23843;51.320;12.340;2023-02-28T11:13:14;6.40;;;4.23;;
38037;SDS011;23843;51.320;12.340;2023-02-28T11:15:45;7.57;;;4.40;;
38037;SDS011;23843;51.320;12.340;2023-02-28T11:18:21;8.10;;;4.60;;
38037;SDS011;23843;51.320;12.340;2023-02-28T11:20:50;7.63;;;4.30;;
38037;SDS011;23843;51.320;12.340;2023-02-28T11:23:20;9.40;;;5.30;;
38037;SDS011;23843;51.320;12.340;2023-02-28T11:25:47;8.30;;;4.20;;
38037;SDS011;23843;51.320;12.340;2023-02-28T11:28:23;6.57;;;3.80;;
38037;SDS011;23843;51.320;12.340;2023-02-28T11:31:00;5.37;;;4.00;;
38037;SDS011;23843;51.320;12.340;2023-02-28T11:33:28;8.97;;;5.03;;
38037;SDS011;23843;51.320;12.340;2023-02-28T11:35:57;6.20;;;3.60;;
38037;SDS011;23843;51.320;12.340;2023-02-28T11:38:28;7.47;;;4.33;;
38037;SDS011;23843;51.320;12.340;2023-02-28T11:41:05;5.90;;;3.93;;
38037;SDS011;23843;51.320;12.340;2023-02-28T11:43:50;7.07;;;4.17;;
38037;SDS011;23843;51.320;12.340;2023-02-28T11:46:26;7.20;;;4.47;;
38037;SDS011;23843;51.320;12.340;2023-02-28T11:49:02;5.43;;;3.97;;
38037;SDS011;23843;51.320;12.340;2023-02-28T11:51:41;8.23;;;4.60;;
38037;SDS011;23843;51.320;12.340;2023-02-28T11:54:21;6.63;;;3.97;;
38037;SDS011;23843;51.320;12.340;2023-02-28T11:56:53;7.40;;;4.93;;
38037;SDS011;23843;51.320;12.340;2023-02-28T11:59:29;8.30;;;5.10;;
38037;SDS011;23843;51.320;12.340;2023-02-28T12:02:22;10.07;;;5.83;;
38037;SDS011;23843;51.320;12.340;2023-02-28T12:04:53;6.90;;;4.23;;
38037;SDS011;23843;51.320;12.340;2023-02-28T12:07:32;7.63;;;4.40;;
38037;SDS011;23843;51.320;12.340;2023-02-28T12:10:09;13.47;;;5.80;;
38037;SDS011;23843;51.320;12.340;2023-02-28T12:12:47;7.30;;;4.40;;
38037;SDS011;23843;51.320;12.340;2023-02-28T12:15:28;6.10;;;4.03;;
38037;SDS011;23843;51.320;12.340;2023-02-28T12:18:35;7.43;;;4.37;;
38037;SDS011;23843;51.320;12.340;2023-02-28T12:21:15;10.13;;;6.00;;
38037;SDS011;23843;51.320;12.340;2023-02-28T12:23:53;8.70;;;5.20;;
38037;SDS011;23843;51.320;12.340;2023-02-28T12:26:36;8.57;;;5.17;;
38037;SDS011;23843;51.320;12.340;2023-02-28T12:29:09;10.50;;;5.93;;
38037;SDS011;23843;51.320;12.340;2023-02-28T12:31:41;10.70;;;5.80;;
38037;SDS011;23843;51.320;12.340;2023-02-28T12:34:12;8.90;;;5.93;;
38037;SDS011;23843;51.320;12.340;2023-02-28T12:36:41;9.00;;;5.83;;
38037;SDS011;23843;51.320;12.340;2023-02-28T12:39:12;8.50;;;5.30;;
38037;SDS011;23843;51.320;12.340;2023-02-28T12:41:46;9.37;;;4.93;;
38037;SDS011;23843;51.320;12.340;2023-02-28T12:44:17;6.87;;;4.80;;
38037;SDS011;23843;51.320;12.340;2023-02-28T12:46:56;9.20;;;6.10;;
38037;SDS011;23843;51.320;12.340;2023-02-28T12:49:28;10.20;;;6.90;;
38037;SDS011;23843;51.320;12.340;2023-02-28T12:51:58;9.50;;;6.97;;
38037;SDS011;23843;51.320;12.340;2023-02-28T12:54:28;8.90;;;6.03;;
38037;SDS011;23843;51.320;12.340;2023-02-28T12:57:02;11.03;;;6.90;;
38037;SDS011;23843;51.320;12.340;2023-02-28T12:59:35;9.43;;;6.27;;
38037;SDS011;23843;51.320;12.340;2023-02-28T13:11:29;8.37;;;5.70;;
38037;SDS011;23843;51.320;12.340;2023-02-28T13:14:01;12.50;;;7.67;;
38037;SDS011;23843;51.320;12.340;2023-02-28T13:16:31;10.67;;;5.97;;
38037;SDS011;23843;51.320;12.340;2023-02-28T13:19:18;9.20;;;5.40;;
38037;SDS011;23843;51.320;12.340;2023-02-28T13:21:46;6.43;;;3.87;;
38037;SDS011;23843;51.320;12.340;2023-02-28T13:24:13;9.77;;;6.07;;
38037;SDS011;23843;51.320;12.340;2023-02-28T13:36:09;11.83;;;6.93;;
38037;SDS011;23843;51.320;12.340;2023-02-28T13:38:40;9.33;;;6.00;;
38037;SDS011;23843;51.320;12.340;2023-02-28T13:44:21;9.97;;;7.03;;
38037;SDS011;23843;51.320;12.340;2023-02-28T13:49:46;10.50;;;6.53;;
38037;SDS011;23843;51.320;12.340;2023-02-28T13:52:18;9.47;;;6.37;;
38037;SDS011;23843;51.320;12.340;2023-02-28T13:57:59;10.57;;;6.30;;
38037;SDS011;23843;51.320;12.340;2023-02-28T14:04:09;8.77;;;5.70;;
38037;SDS011;23843;51.320;12.340;2023-02-28T14:06:50;8.40;;;5.50;;
38037;SDS011;23843;51.320;12.340;2023-02-28T14:09:19;10.77;;;6.37;;
38037;SDS011;23843;51.320;12.340;2023-02-28T14:11:49;9.27;;;5.43;;
38037;SDS011;23843;51.320;12.340;2023-02-28T14:17:14;7.93;;;4.63;;
38037;SDS011;23843;51.320;12.340;2023-02-28T14:19:43;8.63;;;5.50;;
38037;SDS011;23843;51.320;12.340;2023-02-28T14:22:16;9.07;;;4.57;;
38037;SDS011;23843;51.320;12.340;2023-02-28T14:25:06;9.13;;;5.27;;
38037;SDS011;23843;51.320;12.340;2023-02-28T14:27:37;7.93;;;4.90;;
38037;SDS011;23843;51.320;12.340;2023-02-28T14:36:10;9.23;;;5.10;;
38037;SDS011;23843;51.320;12.340;2023-02-28T14:38:45;9.47;;;6.07;;
38037;SDS011;23843;51.320;12.340;2023-02-28T14:41:14;9.23;;;6.07;;
38037;SDS011;23843;51.320;12.340;2023-02-28T14:43:50;10.73;;;6.40;;
38037;SDS011;23843;51.320;12.340;2023-02-28T14:46:20;10.80;;;6.23;;
38037;SDS011;23843;51.320;12.340;2023-02-28T14:48:48;10.97;;;6.53;;
38037;SDS011;23843;51.320;12.340;2023-02-28T14:51:17;13.30;;;7.50;;
38037;SDS011;23843;51.320;12.340;2023-02-28T14:53:45;9.53;;;6.40;;
38037;SDS011;23843;51.320;12.340;2023-02-28T14:56:18;11.73;;;5.83;;
38037;SDS011;23843;51.320;12.340;2023-02-28T14:58:50;8.60;;;5.33;;
38037;SDS011;23843;51.320;12.340;2023-02-28T15:01:19;13.13;;;7.70;;
38037;SDS011;23843;51.320;12.340;2023-02-28T15:03:45;11.53;;;6.90;;
38037;SDS011;23843;51.320;12.340;2023-02-28T15:06:13;10.23;;;5.93;;
38037;SDS011;23843;51.320;12.340;2023-02-28T15:08:40;8.67;;;5.73;;
38037;SDS011;23843;51.320;12.340;2023-02-28T15:11:07;7.53;;;5.53;;
38037;SDS011;23843;51.320;12.340;2023-02-28T15:13:36;11.17;;;5.53;;
38037;SDS011;23843;51.320;12.340;2023-02-28T15:16:08;8.83;;;6.20;;
38037;SDS011;23843;51.320;12.340;2023-02-28T15:18:41;8.93;;;5.83;;
38037;SDS011;23843;51.320;12.340;2023-02-28T15:21:11;8.27;;;5.17;;
38037;SDS011;23843;51.320;12.340;2023-02-28T15:23:38;10.47;;;6.90;;
38037;SDS011;23843;51.320;12.340;2023-02-28T15:26:11;13.77;;;8.23;;
38037;SDS011;23843;51.320;12.340;2023-02-28T15:28:40;11.37;;;7.33;;
38037;SDS011;23843;51.320;12.340;2023-02-28T15:31:17;11.87;;;7.77;;
38037;SDS011;23843;51.320;12.340;2023-02-28T15:33:51;10.60;;;6.47;;
38037;SDS011;23843;51.320;12.340;2023-02-28T15:36:18;8.00;;;5.60;;
38037;SDS011;23843;51.320;12.340;2023-02-28T15:38:50;11.63;;;7.30;;
38037;SDS011;23843;51.320;12.340;2023-02-28T15:41:24;8.73;;;5.67;;
38037;SDS011;23843;51.320;12.340;2023-02-28T15:46:42;11.57;;;7.47;;
38037;SDS011;23843;51.320;12.340;2023-02-28T15:49:12;10.33;;;6.50;;
38037;SDS011;23843;51.320;12.340;2023-02-28T15:51:45;11.87;;;7.60;;
38037;SDS011;23843;51.320;12.340;2023-02-28T15:54:14;10.03;;;6.63;;
38037;SDS011;23843;51.320;12.340;2023-02-28T15:56:46;9.83;;;5.97;;
38037;SDS011;23843;51.320;12.340;2023-02-28T15:59:17;11.13;;;6.90;;
38037;SDS011;23843;51.320;12.340;2023-02-28T16:02:01;10.80;;;6.80;;
38037;SDS011;23843;51.320;12.340;2023-02-28T16:04:36;13.00;;;6.73;;
38037;SDS011;23843;51.320;12.340;2023-02-28T16:07:03;9.93;;;6.40;;
38037;SDS011;23843;51.320;12.340;2023-02-28T16:09:30;5.83;;;3.80;;
38037;SDS011;23843;51.320;12.340;2023-02-28T16:11:59;7.07;;;4.20;;
38037;SDS011;23843;51.320;12.340;2023-02-28T16:14:28;5.83;;;4.10;;
38037;SDS011;23843;51.320;12.340;2023-02-28T16:16:55;8.20;;;5.53;;
38037;SDS011;23843;51.320;12.340;2023-02-28T16:19:22;12.80;;;7.60;;
38037;SDS011;23843;51.320;12.340;2023-02-28T16:21:48;13.80;;;7.90;;
38037;SDS011;23843;51.320;12.340;2023-02-28T16:24:14;13.10;;;8.37;;
38037;SDS011;23843;51.320;12.340;2023-02-28T16:26:40;11.80;;;6.17;;
38037;SDS011;23843;51.320;12.340;2023-02-28T16:29:12;7.63;;;5.20;;
38037;SDS011;23843;51.320;12.340;2023-02-28T16:31:41;8.93;;;5.50;;
38037;SDS011;23843;51.320;12.340;2023-02-28T16:34:07;10.00;;;5.90;;
38037;SDS011;23843;51.320;12.340;2023-02-28T16:36:32;9.43;;;5.97;;
38037;SDS011;23843;51.320;12.340;2023-02-28T16:38:58;10.27;;;5.20;;
38037;SDS011;23843;51.320;12.340;2023-02-28T16:41:24;7.40;;;3.97;;
38037;SDS011;23843;51.320;12.340;2023-02-28T16:43:51;6.87;;;4.60;;
38037;SDS011;23843;51.320;12.340;2023-02-28T16:46:20;8.63;;;5.67;;
38037;SDS011;23843;51.320;12.340;2023-02-28T16:48:48;10.70;;;6.60;;
38037;SDS011;23843;51.320;12.340;2023-02-28T16:51:28;9.80;;;6.30;;
38037;SDS011;23843;51.320;12.340;2023-02-28T16:53:53;10.37;;;6.13;;
38037;SDS011;23843;51.320;12.340;2023-02-28T16:56:21;10.53;;;6.87;;
38037;SDS011;23843;51.320;12.340;2023-02-28T16:58:49;7.93;;;4.97;;
38037;SDS011;23843;51.320;12.340;2023-02-28T17:01:16;10.40;;;6.07;;
38037;SDS011;23843;51.320;12.340;2023-02-28T17:03:45;12.27;;;7.30;;
38037;SDS011;23843;51.320;12.340;2023-02-28T17:06:16;9.00;;;5.40;;
38037;SDS011;23843;51.320;12.340;2023-02-28T17:08:44;6.83;;;4.20;;
38037;SDS011;23843;51.320;12.340;2023-02-28T17:11:10;7.57;;;4.77;;
38037;SDS011;23843;51.320;12.340;2023-02-28T17:13:36;5.27;;;3.50;;
38037;SDS011;23843;51.320;12.340;2023-02-28T17:16:02;6.27;;;3.90;;
38037;SDS011;23843;51.320;12.340;2023-02-28T17:18:29;7.27;;;4.50;;
38037;SDS011;23843;51.320;12.340;2023-02-28T17:20:55;7.20;;;4.50;;
38037;SDS011;23843;51.320;12.340;2023-02-28T17:23:21;6.10;;;3.80;;
38037;SDS011;23843;51.320;12.340;2023-02-28T17:25:54;5.47;;;2.93;;
38037;SDS011;23843;51.320;12.340;2023-02-28T17:28:20;8.27;;;4.27;;
38037;SDS011;23843;51.320;12.340;2023-02-28T17:30:46;5.57;;;3.27;;
38037;SDS011;23843;51.320;12.340;2023-02-28T17:33:11;3.97;;;2.73;;
38037;SDS011;23843;51.320;12.340;2023-02-28T17:35:37;5.93;;;3.70;;
38037;SDS011;23843;51.320;12.340;2023-02-28T17:38:04;7.30;;;4.50;;
38037;SDS011;23843;51.320;12.340;2023-02-28T17:40:31;5.87;;;3.07;;
38037;SDS011;23843;51.320;12.340;2023-02-28T17:42:58;4.33;;;2.70;;
38037;SDS011;23843;51.320;12.340;2023-02-28T17:47:51;3.93;;;2.80;;
38037;SDS011;23843;51.320;12.340;2023-02-28T17:50:20;4.20;;;2.70;;
38037;SDS011;23843;51.320;12.340;2023-02-28T17:52:47;5.63;;;3.80;;
38037;SDS011;23843;51.320;12.340;2023-02-28T17:55:14;3.87;;;2.53;;
38037;SDS011;23843;51.320;12.340;2023-02-28T17:57:42;2.93;;;1.90;;
38037;SDS011;23843;51.320;12.340;2023-02-28T18:00:10;2.60;;;1.60;;
38037;SDS011;23843;51.320;12.340;2023-02-28T18:02:38;1.20;;;1.10;;
38037;SDS011;23843;51.320;12.340;2023-02-28T18:05:03;1.30;;;1.00;;
38037;SDS011;23843;51.320;12.340;2023-02-28T18:07:30;1.00;;;0.77;;
38037;SDS011;23843;51.320;12.340;2023-02-28T18:09:55;1.20;;;0.90;;
38037;SDS011;23843;51.320;12.340;2023-02-28T18:12:22;1.60;;;1.00;;
38037;SDS011;23843;51.320;12.340;2023-02-28T18:14:48;1.30;;;0.97;;
38037;SDS011;23843;51.320;12.340;2023-02-28T18:17:13;1.17;;;0.90;;
38037;SDS011;23843;51.320;12.340;2023-02-28T18:19:39;1.50;;;0.97;;
38037;SDS011;23843;51.320;12.340;2023-02-28T18:22:05;1.43;;;1.10;;
38037;SDS011;23843;51.320;12.340;2023-02-28T18:24:31;1.37;;;0.93;;
38037;SDS011;23843;51.320;12.340;2023-02-28T18:26:57;1.67;;;1.10;;
38037;SDS011;23843;51.320;12.340;2023-02-28T18:29:24;1.57;;;0.97;;
38037;SDS011;23843;51.320;12.340;2023-02-28T18:31:52;1.40;;;1.10;;
38037;SDS011;23843;51.320;12.340;2023-02-28T18:34:19;1.67;;;1.07;;
38037;SDS011;23843;51.320;12.340;2023-02-28T18:36:46;1.73;;;1.00;;
38037;SDS011;23843;51.320;12.340;2023-02-28T18:39:12;2.13;;;1.00;;
38037;SDS011;23843;51.320;12.340;2023-02-28T18:41:39;1.33;;;0.83;;
38037;SDS011;23843;51.320;12.340;2023-02-28T18:44:04;1.60;;;1.03;;
38037;SDS011;23843;51.320;12.340;2023-02-28T18:46:32;0.87;;;0.70;;
38037;SDS011;23843;51.320;12.340;2023-02-28T18:48:59;0.90;;;0.80;;
38037;SDS011;23843;51.320;12.340;2023-02-28T18:51:25;0.83;;;0.70;;
38037;SDS011;23843;51.320;12.340;2023-02-28T18:53:52;1.10;;;0.90;;
38037;SDS011;23843;51.320;12.340;2023-02-28T18:56:18;1.20;;;0.80;;
38037;SDS011;23843;51.320;12.340;2023-02-28T18:58:45;1.30;;;1.00;;
38037;SDS011;23843;51.320;12.340;2023-02-28T19:01:14;1.00;;;0.80;;
38037;SDS011;23843;51.320;12.340;2023-02-28T19:03:42;1.23;;;0.90;;
38037;SDS011;23843;51.320;12.340;2023-02-28T19:06:09;1.67;;;1.20;;
38037;SDS011;23843;51.320;12.340;2023-02-28T19:08:36;1.40;;;1.10;;
38037;SDS011;23843;51.320;12.340;2023-02-28T19:11:05;0.90;;;0.90;;
38037;SDS011;23843;51.320;12.340;2023-02-28T19:13:31;1.30;;;0.70;;
38037;SDS011;23843;51.320;12.340;2023-02-28T19:15:59;1.17;;;0.80;;
38037;SDS011;23843;51.320;12.340;2023-02-28T19:18:26;1.03;;;0.63;;
38037;SDS011;23843;51.320;12.340;2023-02-28T19:20:53;1.27;;;0.80;;
38037;SDS011;23843;51.320;12.340;2023-02-28T19:23:19;1.60;;;0.70;;
38037;SDS011;23843;51.320;12.340;2023-02-28T19:25:47;0.80;;;0.70;;
38037;SDS011;23843;51.320;12.340;2023-02-28T19:28:15;0.90;;;0.67;;
38037;SDS011;23843;51.320;12.340;2023-02-28T19:30:45;1.50;;;0.90;;
38037;SDS011;23843;51.320;12.340;2023-02-28T19:33:11;1.17;;;0.73;;
38037;SDS011;23843;51.320;12.340;2023-02-28T19:35:38;1.73;;;0.77;;
38037;SDS011;23843;51.320;12.340;2023-02-28T19:38:06;1.20;;;0.80;;
38037;SDS011;23843;51.320;12.340;2023-02-28T19:40:32;1.10;;;0.80;;
38037;SDS011;23843;51.320;12.340;2023-02-28T19:42:58;1.10;;;0.80;;
38037;SDS011;23843;51.320;12.340;2023-02-28T19:45:25;1.10;;;0.70;;
38037;SDS011;23843;51.320;12.340;2023-02-28T19:47:51;1.03;;;0.70;;
38037;SDS011;23843;51.320;12.340;2023-02-28T19:50:17;1.30;;;0.83;;
38037;SDS011;23843;51.320;12.340;2023-02-28T19:52:43;1.10;;;0.80;;
38037;SDS011;23843;51.320;12.340;2023-02-28T19:55:12;1.13;;;0.70;;
38037;SDS011;23843;51.320;12.340;2023-02-28T19:57:37;1.17;;;0.73;;
38037;SDS011;23843;51.320;12.340;2023-02-28T20:00:03;0.60;;;0.60;;
38037;SDS011;23843;51.320;12.340;2023-02-28T20:02:29;0.90;;;0.80;;
38037;SDS011;23843;51.320;12.340;2023-02-28T20:04:55;0.83;;;0.73;;
38037;SDS011;23843;51.320;12.340;2023-02-28T20:07:20;1.77;;;1.23;;
38037;SDS011;23843;51.320;12.340;2023-02-28T20:09:45;1.93;;;1.33;;
38037;SDS011;23843;51.320;12.340;2023-02-28T20:12:12;2.13;;;1.50;;
38037;SDS011;23843;51.320;12.340;2023-02-28T20:14:38;1.70;;;1.10;;
38037;SDS011;23843;51.320;12.340;2023-02-28T20:17:03;1.30;;;0.97;;
38037;SDS011;23843;51.320;12.340;2023-02-28T20:19:29;1.40;;;1.00;;
38037;SDS011;23843;51.320;12.340;2023-02-28T20:21:56;1.10;;;0.90;;
38037;SDS011;23843;51.320;12.340;2023-02-28T20:24:23;1.23;;;0.80;;
38037;SDS011;23843;51.320;12.340;2023-02-28T20:26:49;2.07;;;1.33;;
38037;SDS011;23843;51.320;12.340;2023-02-28T20:29:15;1.00;;;0.90;;
38037;SDS011;23843;51.320;12.340;2023-02-28T20:31:42;1.00;;;0.70;;
38037;SDS011;23843;51.320;12.340;2023-02-28T20:34:10;1.30;;;0.80;;
38037;SDS011;23843;51.320;12.340;2023-02-28T20:36:36;1.20;;;0.90;;
38037;SDS011;23843;51.320;12.340;2023-02-28T20:39:03;1.27;;;0.83;;
38037;SDS011;23843;51.320;12.340;2023-02-28T20:41:28;1.30;;;0.80;;
38037;SDS011;23843;51.320;12.340;2023-02-28T20:43:55;1.37;;;0.90;;
38037;SDS011;23843;51.320;12.340;2023-02-28T20:46:24;1.40;;;1.10;;
38037;SDS011;23843;51.320;12.340;2023-02-28T20:48:51;1.40;;;0.93;;
38037;SDS011;23843;51.320;12.340;2023-02-28T20:51:17;1.37;;;0.93;;
38037;SDS011;23843;51.320;12.340;2023-02-28T20:53:42;0.90;;;0.80;;
38037;SDS011;23843;51.320;12.340;2023-02-28T20:56:09;1.40;;;0.83;;
38037;SDS011;23843;51.320;12.340;2023-02-28T20:58:36;1.60;;;0.93;;
38037;SDS011;23843;51.320;12.340;2023-02-28T21:01:03;1.20;;;0.83;;